LIPH/TSF METAR and TAF weather

Enter ICAO airport designator
Station Type Date Time Source
LIPH METAR 2022/12/04 04:50 UTC NOAA

LIPH 040450Z AUTO 05013KT 9999 -RA OVC032/// 10/07 Q1012 RERA


Station Type Date Time Source
LIPH Decoded METAR 2022/12/04 04:50 UTC NOAA

Treviso / S. Angelo, Italy (LIPH) 45-39N 012-11E 23M
Dec 03, 2022 - 11:50 PM EST / 2022.12.04 0450 UTC
Wind: from the NE (050 degrees) at 15 MPH (13 KT):0
Visibility: greater than 7 mile(s):0
Sky conditions: overcast
Weather: light rain
Temperature: 50 F (10 C)
Dew Point: 44 F (7 C)
Relative Humidity: 81%
Pressure (altimeter): 29.88 in. Hg (1012 hPa)
ob: LIPH 040450Z AUTO 05013KT 9999 -RA OVC032/// 10/07 Q1012 RERA
cycle: 5

Station Type Date Time Source
LIPH TAF 2022/12/03 18:21 UTC NOAA

TAF LIPH 031700Z 0318/0418 06010KT 9999 BKN040
TEMPO 0320/0416 SHRA

Example: see airport list